sensor_id;sensor_type;location;lat;lon;timestamp;temperature;humidity
12268;DHT22;6196;48.398;11.736;2022-10-16T00:01:30;12.50;99.90
12268;DHT22;6196;48.398;11.736;2022-10-16T00:03:59;12.40;99.90
12268;DHT22;6196;48.398;11.736;2022-10-16T00:06:27;12.40;99.90
12268;DHT22;6196;48.398;11.736;2022-10-16T00:08:55;12.30;99.90
12268;DHT22;6196;48.398;11.736;2022-10-16T00:11:29;12.30;99.90
12268;DHT22;6196;48.398;11.736;2022-10-16T00:14:01;12.40;99.90
12268;DHT22;6196;48.398;11.736;2022-10-16T00:16:30;12.40;99.90
12268;DHT22;6196;48.398;11.736;2022-10-16T00:18:57;12.20;99.90
12268;DHT22;6196;48.398;11.736;2022-10-16T00:21:26;12.30;99.90
12268;DHT22;6196;48.398;11.736;2022-10-16T00:24:00;12.30;99.90
12268;DHT22;6196;48.398;11.736;2022-10-16T00:26:30;12.20;99.90
12268;DHT22;6196;48.398;11.736;2022-10-16T00:28:58;12.30;99.90
12268;DHT22;6196;48.398;11.736;2022-10-16T00:31:26;12.30;99.90
12268;DHT22;6196;48.398;11.736;2022-10-16T00:33:53;12.30;99.90
12268;DHT22;6196;48.398;11.736;2022-10-16T00:36:23;12.30;99.90
12268;DHT22;6196;48.398;11.736;2022-10-16T00:38:52;12.30;99.90
12268;DHT22;6196;48.398;11.736;2022-10-16T00:41:23;12.30;99.90
12268;DHT22;6196;48.398;11.736;2022-10-16T00:43:55;12.30;99.90
12268;DHT22;6196;48.398;11.736;2022-10-16T00:46:23;12.30;99.90
12268;DHT22;6196;48.398;11.736;2022-10-16T00:51:48;12.30;99.90
12268;DHT22;6196;48.398;11.736;2022-10-16T00:54:20;12.20;99.90
12268;DHT22;6196;48.398;11.736;2022-10-16T00:56:50;12.20;99.90
12268;DHT22;6196;48.398;11.736;2022-10-16T00:59:25;12.20;99.90
12268;DHT22;6196;48.398;11.736;2022-10-16T01:01:54;12.30;99.90
12268;DHT22;6196;48.398;11.736;2022-10-16T01:04:23;12.30;99.90
12268;DHT22;6196;48.398;11.736;2022-10-16T01:07:12;12.40;99.90
12268;DHT22;6196;48.398;11.736;2022-10-16T01:15:34;12.50;99.90
12268;DHT22;6196;48.398;11.736;2022-10-16T01:18:23;12.50;99.90
12268;DHT22;6196;48.398;11.736;2022-10-16T01:21:17;12.60;99.90
12268;DHT22;6196;48.398;11.736;2022-10-16T01:30:10;12.50;99.90
12268;DHT22;6196;48.398;11.736;2022-10-16T01:35:35;12.50;99.90
12268;DHT22;6196;48.398;11.736;2022-10-16T01:38:08;12.50;99.90
12268;DHT22;6196;48.398;11.736;2022-10-16T01:40:51;12.50;99.90
12268;DHT22;6196;48.398;11.736;2022-10-16T01:43:30;12.50;99.90
12268;DHT22;6196;48.398;11.736;2022-10-16T01:46:01;12.50;99.90
12268;DHT22;6196;48.398;11.736;2022-10-16T01:48:29;12.40;99.90
12268;DHT22;6196;48.398;11.736;2022-10-16T01:51:09;12.40;99.90
12268;DHT22;6196;48.398;11.736;2022-10-16T01:53:40;12.40;99.90
12268;DHT22;6196;48.398;11.736;2022-10-16T01:56:10;12.40;99.90
12268;DHT22;6196;48.398;11.736;2022-10-16T01:58:44;12.40;99.90
12268;DHT22;6196;48.398;11.736;2022-10-16T02:01:15;12.40;99.90
12268;DHT22;6196;48.398;11.736;2022-10-16T02:03:44;12.40;99.90
12268;DHT22;6196;48.398;11.736;2022-10-16T02:06:12;12.30;99.90
12268;DHT22;6196;48.398;11.736;2022-10-16T02:08:39;12.40;99.90
12268;DHT22;6196;48.398;11.736;2022-10-16T02:11:10;12.50;99.90
12268;DHT22;6196;48.398;11.736;2022-10-16T02:13:45;12.50;99.90
12268;DHT22;6196;48.398;11.736;2022-10-16T02:16:15;12.50;99.90
12268;DHT22;6196;48.398;11.736;2022-10-16T02:18:43;12.50;99.90
12268;DHT22;6196;48.398;11.736;2022-10-16T02:21:23;12.50;99.90
12268;DHT22;6196;48.398;11.736;2022-10-16T02:29:27;12.50;99.90
12268;DHT22;6196;48.398;11.736;2022-10-16T02:31:59;12.50;99.90
12268;DHT22;6196;48.398;11.736;2022-10-16T02:34:29;12.50;99.90
12268;DHT22;6196;48.398;11.736;2022-10-16T02:37:00;12.40;99.90
12268;DHT22;6196;48.398;11.736;2022-10-16T02:39:28;12.50;99.90
12268;DHT22;6196;48.398;11.736;2022-10-16T02:41:56;12.40;99.90
12268;DHT22;6196;48.398;11.736;2022-10-16T02:44:22;12.30;99.90
12268;DHT22;6196;48.398;11.736;2022-10-16T02:46:49;12.30;99.90
12268;DHT22;6196;48.398;11.736;2022-10-16T02:49:16;12.20;99.90
12268;DHT22;6196;48.398;11.736;2022-10-16T02:51:44;12.10;99.90
12268;DHT22;6196;48.398;11.736;2022-10-16T02:54:11;12.00;99.90
12268;DHT22;6196;48.398;11.736;2022-10-16T02:56:38;12.00;99.90
12268;DHT22;6196;48.398;11.736;2022-10-16T02:59:05;12.00;99.90
12268;DHT22;6196;48.398;11.736;2022-10-16T03:01:32;12.00;99.90
12268;DHT22;6196;48.398;11.736;2022-10-16T03:03:58;11.90;99.90
12268;DHT22;6196;48.398;11.736;2022-10-16T03:06:25;11.80;99.90
12268;DHT22;6196;48.398;11.736;2022-10-16T03:08:52;11.90;99.90
12268;DHT22;6196;48.398;11.736;2022-10-16T03:11:19;11.80;99.90
12268;DHT22;6196;48.398;11.736;2022-10-16T03:13:46;11.80;99.90
12268;DHT22;6196;48.398;11.736;2022-10-16T03:16:12;11.70;99.90
12268;DHT22;6196;48.398;11.736;2022-10-16T03:18:39;11.70;99.90
12268;DHT22;6196;48.398;11.736;2022-10-16T03:21:06;11.70;99.90
12268;DHT22;6196;48.398;11.736;2022-10-16T03:23:33;11.70;99.90
12268;DHT22;6196;48.398;11.736;2022-10-16T03:26:00;11.70;99.90
12268;DHT22;6196;48.398;11.736;2022-10-16T03:28:27;11.60;99.90
12268;DHT22;6196;48.398;11.736;2022-10-16T03:30:54;11.60;99.90
12268;DHT22;6196;48.398;11.736;2022-10-16T03:33:20;11.70;99.90
12268;DHT22;6196;48.398;11.736;2022-10-16T03:35:52;11.60;99.90
12268;DHT22;6196;48.398;11.736;2022-10-16T03:38:20;11.60;99.90
12268;DHT22;6196;48.398;11.736;2022-10-16T03:40:48;11.70;99.90
12268;DHT22;6196;48.398;11.736;2022-10-16T03:43:14;11.80;99.90
12268;DHT22;6196;48.398;11.736;2022-10-16T03:45:41;11.70;99.90
12268;DHT22;6196;48.398;11.736;2022-10-16T03:48:08;11.80;99.90
12268;DHT22;6196;48.398;11.736;2022-10-16T03:50:35;11.90;99.90
12268;DHT22;6196;48.398;11.736;2022-10-16T03:53:03;11.90;99.90
12268;DHT22;6196;48.398;11.736;2022-10-16T03:55:29;12.00;99.90
12268;DHT22;6196;48.398;11.736;2022-10-16T03:57:56;12.10;99.90
12268;DHT22;6196;48.398;11.736;2022-10-16T04:00:23;12.10;99.90
12268;DHT22;6196;48.398;11.736;2022-10-16T04:02:50;12.20;99.90
12268;DHT22;6196;48.398;11.736;2022-10-16T04:05:17;12.30;99.90
12268;DHT22;6196;48.398;11.736;2022-10-16T04:07:44;12.40;99.90
12268;DHT22;6196;48.398;11.736;2022-10-16T04:10:10;12.30;99.90
12268;DHT22;6196;48.398;11.736;2022-10-16T04:12:37;12.30;99.90
12268;DHT22;6196;48.398;11.736;2022-10-16T04:15:04;12.30;99.90
12268;DHT22;6196;48.398;11.736;2022-10-16T04:17:31;12.40;99.90
12268;DHT22;6196;48.398;11.736;2022-10-16T04:19:58;12.40;99.90
12268;DHT22;6196;48.398;11.736;2022-10-16T04:22:25;12.50;99.90
12268;DHT22;6196;48.398;11.736;2022-10-16T04:24:53;12.30;99.90
12268;DHT22;6196;48.398;11.736;2022-10-16T04:27:20;12.30;99.90
12268;DHT22;6196;48.398;11.736;2022-10-16T04:29:46;12.30;99.90
12268;DHT22;6196;48.398;11.736;2022-10-16T04:32:13;12.40;99.90
12268;DHT22;6196;48.398;11.736;2022-10-16T04:34:40;12.40;99.90
12268;DHT22;6196;48.398;11.736;2022-10-16T04:37:07;12.50;99.90
12268;DHT22;6196;48.398;11.736;2022-10-16T04:39:34;12.40;99.90
12268;DHT22;6196;48.398;11.736;2022-10-16T04:42:01;12.50;99.90
12268;DHT22;6196;48.398;11.736;2022-10-16T04:44:28;12.40;99.90
12268;DHT22;6196;48.398;11.736;2022-10-16T04:46:55;12.40;99.90
12268;DHT22;6196;48.398;11.736;2022-10-16T04:49:22;12.40;99.90
12268;DHT22;6196;48.398;11.736;2022-10-16T04:51:49;12.50;99.90
12268;DHT22;6196;48.398;11.736;2022-10-16T04:54:16;12.50;99.90
12268;DHT22;6196;48.398;11.736;2022-10-16T04:56:42;12.50;99.90
12268;DHT22;6196;48.398;11.736;2022-10-16T04:59:16;12.50;99.90
12268;DHT22;6196;48.398;11.736;2022-10-16T05:01:44;12.50;99.90
12268;DHT22;6196;48.398;11.736;2022-10-16T05:04:11;12.60;99.90
12268;DHT22;6196;48.398;11.736;2022-10-16T05:06:38;12.60;99.90
12268;DHT22;6196;48.398;11.736;2022-10-16T05:09:05;12.60;99.90
12268;DHT22;6196;48.398;11.736;2022-10-16T05:11:33;12.70;99.90
12268;DHT22;6196;48.398;11.736;2022-10-16T05:14:00;12.60;99.90
12268;DHT22;6196;48.398;11.736;2022-10-16T05:16:27;12.60;99.90
12268;DHT22;6196;48.398;11.736;2022-10-16T05:18:56;12.70;99.90
12268;DHT22;6196;48.398;11.736;2022-10-16T05:21:43;12.70;99.90
12268;DHT22;6196;48.398;11.736;2022-10-16T05:24:10;12.70;99.90
12268;DHT22;6196;48.398;11.736;2022-10-16T05:26:37;12.70;99.90
12268;DHT22;6196;48.398;11.736;2022-10-16T05:29:04;12.70;99.90
12268;DHT22;6196;48.398;11.736;2022-10-16T05:31:31;12.80;99.90
12268;DHT22;6196;48.398;11.736;2022-10-16T05:34:01;12.70;99.90
12268;DHT22;6196;48.398;11.736;2022-10-16T05:36:28;12.70;99.90
12268;DHT22;6196;48.398;11.736;2022-10-16T05:38:55;12.60;99.90
12268;DHT22;6196;48.398;11.736;2022-10-16T05:41:21;12.70;99.90
12268;DHT22;6196;48.398;11.736;2022-10-16T05:43:50;12.60;99.90
12268;DHT22;6196;48.398;11.736;2022-10-16T05:46:17;12.60;99.90
12268;DHT22;6196;48.398;11.736;2022-10-16T05:48:44;12.50;99.90
12268;DHT22;6196;48.398;11.736;2022-10-16T05:51:12;12.60;99.90
12268;DHT22;6196;48.398;11.736;2022-10-16T05:53:41;12.50;99.90
12268;DHT22;6196;48.398;11.736;2022-10-16T05:56:10;12.50;99.90
12268;DHT22;6196;48.398;11.736;2022-10-16T05:58:39;12.50;99.90
12268;DHT22;6196;48.398;11.736;2022-10-16T06:01:25;12.40;99.90
12268;DHT22;6196;48.398;11.736;2022-10-16T06:03:52;12.40;99.90
12268;DHT22;6196;48.398;11.736;2022-10-16T06:06:21;12.40;99.90
12268;DHT22;6196;48.398;11.736;2022-10-16T06:08:50;12.30;99.90
12268;DHT22;6196;48.398;11.736;2022-10-16T06:11:22;12.30;99.90
12268;DHT22;6196;48.398;11.736;2022-10-16T06:13:56;12.20;99.90
12268;DHT22;6196;48.398;11.736;2022-10-16T06:16:27;12.20;99.90
12268;DHT22;6196;48.398;11.736;2022-10-16T06:18:55;12.20;99.90
12268;DHT22;6196;48.398;11.736;2022-10-16T06:21:24;12.20;99.90
12268;DHT22;6196;48.398;11.736;2022-10-16T06:23:52;12.20;99.90
12268;DHT22;6196;48.398;11.736;2022-10-16T06:26:22;12.20;99.90
12268;DHT22;6196;48.398;11.736;2022-10-16T06:28:50;12.30;99.90
12268;DHT22;6196;48.398;11.736;2022-10-16T06:31:17;12.30;99.90
12268;DHT22;6196;48.398;11.736;2022-10-16T06:33:44;12.30;99.90
12268;DHT22;6196;48.398;11.736;2022-10-16T06:36:15;12.30;99.90
12268;DHT22;6196;48.398;11.736;2022-10-16T06:38:43;12.30;99.90
12268;DHT22;6196;48.398;11.736;2022-10-16T06:41:16;12.40;99.90
12268;DHT22;6196;48.398;11.736;2022-10-16T06:43:45;12.50;99.90
12268;DHT22;6196;48.398;11.736;2022-10-16T06:46:14;12.80;99.90
12268;DHT22;6196;48.398;11.736;2022-10-16T06:48:44;12.80;99.90
12268;DHT22;6196;48.398;11.736;2022-10-16T06:51:13;13.10;99.90
12268;DHT22;6196;48.398;11.736;2022-10-16T06:53:49;13.50;99.90
12268;DHT22;6196;48.398;11.736;2022-10-16T06:56:29;14.00;99.90
12268;DHT22;6196;48.398;11.736;2022-10-16T06:58:58;14.50;99.90
12268;DHT22;6196;48.398;11.736;2022-10-16T07:01:26;14.90;99.90
12268;DHT22;6196;48.398;11.736;2022-10-16T07:03:53;15.30;99.90
12268;DHT22;6196;48.398;11.736;2022-10-16T07:06:22;15.50;99.90
12268;DHT22;6196;48.398;11.736;2022-10-16T07:08:51;15.50;99.90
12268;DHT22;6196;48.398;11.736;2022-10-16T07:11:23;15.50;99.90
12268;DHT22;6196;48.398;11.736;2022-10-16T07:13:50;15.50;99.90
12268;DHT22;6196;48.398;11.736;2022-10-16T07:16:24;15.40;99.90
12268;DHT22;6196;48.398;11.736;2022-10-16T07:18:55;15.20;99.90
12268;DHT22;6196;48.398;11.736;2022-10-16T07:21:29;15.30;99.90
12268;DHT22;6196;48.398;11.736;2022-10-16T07:24:05;15.40;99.90
12268;DHT22;6196;48.398;11.736;2022-10-16T07:26:34;15.40;99.90
12268;DHT22;6196;48.398;11.736;2022-10-16T07:29:02;15.70;99.90
12268;DHT22;6196;48.398;11.736;2022-10-16T07:31:30;15.50;99.90
12268;DHT22;6196;48.398;11.736;2022-10-16T07:34:00;16.10;99.90
12268;DHT22;6196;48.398;11.736;2022-10-16T07:36:27;16.90;99.90
12268;DHT22;6196;48.398;11.736;2022-10-16T07:38:55;17.50;99.90
12268;DHT22;6196;48.398;11.736;2022-10-16T07:41:25;17.40;99.90
12268;DHT22;6196;48.398;11.736;2022-10-16T07:43:53;17.50;99.90
12268;DHT22;6196;48.398;11.736;2022-10-16T07:46:22;18.10;99.90
12268;DHT22;6196;48.398;11.736;2022-10-16T07:48:49;18.10;99.90
12268;DHT22;6196;48.398;11.736;2022-10-16T07:51:21;18.50;99.90
12268;DHT22;6196;48.398;11.736;2022-10-16T07:53:49;18.50;99.90
12268;DHT22;6196;48.398;11.736;2022-10-16T07:56:17;18.30;99.90
12268;DHT22;6196;48.398;11.736;2022-10-16T07:58:45;18.70;99.90
12268;DHT22;6196;48.398;11.736;2022-10-16T08:01:14;19.30;99.90
12268;DHT22;6196;48.398;11.736;2022-10-16T08:03:46;20.00;99.90
12268;DHT22;6196;48.398;11.736;2022-10-16T08:06:14;19.90;99.90
12268;DHT22;6196;48.398;11.736;2022-10-16T08:08:41;20.10;99.90
12268;DHT22;6196;48.398;11.736;2022-10-16T08:11:08;20.10;99.90
12268;DHT22;6196;48.398;11.736;2022-10-16T08:13:36;20.30;99.90
12268;DHT22;6196;48.398;11.736;2022-10-16T08:16:03;20.00;99.90
12268;DHT22;6196;48.398;11.736;2022-10-16T08:18:35;19.50;99.90
12268;DHT22;6196;48.398;11.736;2022-10-16T08:21:03;19.60;99.90
12268;DHT22;6196;48.398;11.736;2022-10-16T08:23:31;19.90;99.90
12268;DHT22;6196;48.398;11.736;2022-10-16T08:26:05;19.80;99.90
12268;DHT22;6196;48.398;11.736;2022-10-16T08:28:33;20.30;99.90
12268;DHT22;6196;48.398;11.736;2022-10-16T08:31:13;20.80;99.90
12268;DHT22;6196;48.398;11.736;2022-10-16T08:33:44;21.40;99.90
12268;DHT22;6196;48.398;11.736;2022-10-16T08:36:14;22.00;99.90
12268;DHT22;6196;48.398;11.736;2022-10-16T08:38:41;22.20;99.90
12268;DHT22;6196;48.398;11.736;2022-10-16T08:47:13;21.90;99.90
12268;DHT22;6196;48.398;11.736;2022-10-16T08:49:54;22.30;99.90
12268;DHT22;6196;48.398;11.736;2022-10-16T08:52:25;22.90;99.90
12268;DHT22;6196;48.398;11.736;2022-10-16T08:54:56;23.40;99.90
12268;DHT22;6196;48.398;11.736;2022-10-16T08:57:25;23.60;99.90
12268;DHT22;6196;48.398;11.736;2022-10-16T08:59:53;22.10;99.90
12268;DHT22;6196;48.398;11.736;2022-10-16T09:08:20;21.30;99.90
12268;DHT22;6196;48.398;11.736;2022-10-16T09:16:53;22.20;99.90
12268;DHT22;6196;48.398;11.736;2022-10-16T09:19:31;22.30;99.90
12268;DHT22;6196;48.398;11.736;2022-10-16T09:22:10;22.50;99.90
12268;DHT22;6196;48.398;11.736;2022-10-16T09:24:40;22.50;99.90
12268;DHT22;6196;48.398;11.736;2022-10-16T09:27:14;22.60;99.90
12268;DHT22;6196;48.398;11.736;2022-10-16T09:29:41;22.80;99.90
12268;DHT22;6196;48.398;11.736;2022-10-16T09:32:34;22.70;99.90
12268;DHT22;6196;48.398;11.736;2022-10-16T09:35:01;22.60;99.90
12268;DHT22;6196;48.398;11.736;2022-10-16T09:37:29;23.00;99.90
12268;DHT22;6196;48.398;11.736;2022-10-16T09:39:55;23.50;99.90
12268;DHT22;6196;48.398;11.736;2022-10-16T09:42:35;22.60;99.90
12268;DHT22;6196;48.398;11.736;2022-10-16T09:45:03;22.70;99.90
12268;DHT22;6196;48.398;11.736;2022-10-16T09:47:31;23.20;99.90
12268;DHT22;6196;48.398;11.736;2022-10-16T09:50:05;23.30;99.90
12268;DHT22;6196;48.398;11.736;2022-10-16T09:53:13;23.60;99.90
12268;DHT22;6196;48.398;11.736;2022-10-16T09:55:51;23.80;99.90
12268;DHT22;6196;48.398;11.736;2022-10-16T09:58:22;24.30;99.90
12268;DHT22;6196;48.398;11.736;2022-10-16T10:00:54;24.60;99.90
12268;DHT22;6196;48.398;11.736;2022-10-16T10:03:48;25.00;99.90
12268;DHT22;6196;48.398;11.736;2022-10-16T10:06:26;25.50;99.90
12268;DHT22;6196;48.398;11.736;2022-10-16T10:08:56;26.10;99.90
12268;DHT22;6196;48.398;11.736;2022-10-16T10:14:38;26.40;99.90
12268;DHT22;6196;48.398;11.736;2022-10-16T10:19:46;26.60;99.90
12268;DHT22;6196;48.398;11.736;2022-10-16T10:28:13;27.40;99.90
12268;DHT22;6196;48.398;11.736;2022-10-16T10:45:42;26.90;99.90
12268;DHT22;6196;48.398;11.736;2022-10-16T10:51:00;27.80;99.90
12268;DHT22;6196;48.398;11.736;2022-10-16T10:56:44;29.20;99.90
12268;DHT22;6196;48.398;11.736;2022-10-16T10:59:40;28.60;99.90
12268;DHT22;6196;48.398;11.736;2022-10-16T11:02:23;28.70;99.90
12268;DHT22;6196;48.398;11.736;2022-10-16T11:07:58;30.40;99.90
12268;DHT22;6196;48.398;11.736;2022-10-16T11:10:45;30.90;99.90
12268;DHT22;6196;48.398;11.736;2022-10-16T11:13:26;30.80;99.90
12268;DHT22;6196;48.398;11.736;2022-10-16T11:16:16;30.60;99.90
12268;DHT22;6196;48.398;11.736;2022-10-16T11:22:15;30.70;99.90
12268;DHT22;6196;48.398;11.736;2022-10-16T11:24:59;30.90;99.90
12268;DHT22;6196;48.398;11.736;2022-10-16T11:30:27;31.40;99.90
12268;DHT22;6196;48.398;11.736;2022-10-16T11:38:54;33.50;98.90
12268;DHT22;6196;48.398;11.736;2022-10-16T11:47:40;33.90;98.10
12268;DHT22;6196;48.398;11.736;2022-10-16T11:50:54;33.40;96.50
12268;DHT22;6196;48.398;11.736;2022-10-16T11:56:30;34.90;94.90
12268;DHT22;6196;48.398;11.736;2022-10-16T11:59:00;35.40;92.60
12268;DHT22;6196;48.398;11.736;2022-10-16T12:01:40;35.70;92.00
12268;DHT22;6196;48.398;11.736;2022-10-16T12:04:36;34.90;90.90
12268;DHT22;6196;48.398;11.736;2022-10-16T12:07:15;31.90;92.10
12268;DHT22;6196;48.398;11.736;2022-10-16T12:09:45;30.50;96.70
12268;DHT22;6196;48.398;11.736;2022-10-16T12:12:26;30.90;97.40
12268;DHT22;6196;48.398;11.736;2022-10-16T12:18:23;30.90;93.60
12268;DHT22;6196;48.398;11.736;2022-10-16T12:20:57;30.90;92.70
12268;DHT22;6196;48.398;11.736;2022-10-16T12:23:26;31.70;95.30
12268;DHT22;6196;48.398;11.736;2022-10-16T12:25:58;31.90;92.80
12268;DHT22;6196;48.398;11.736;2022-10-16T12:28:27;31.80;93.90
12268;DHT22;6196;48.398;11.736;2022-10-16T12:30:58;32.10;93.50
12268;DHT22;6196;48.398;11.736;2022-10-16T12:33:29;32.00;91.80
12268;DHT22;6196;48.398;11.736;2022-10-16T12:36:03;32.50;93.40
12268;DHT22;6196;48.398;11.736;2022-10-16T12:38:46;33.70;92.60
12268;DHT22;6196;48.398;11.736;2022-10-16T12:41:25;34.50;89.40
12268;DHT22;6196;48.398;11.736;2022-10-16T12:43:53;35.30;86.70
12268;DHT22;6196;48.398;11.736;2022-10-16T12:46:24;35.90;83.70
12268;DHT22;6196;48.398;11.736;2022-10-16T12:49:14;35.90;80.80
12268;DHT22;6196;48.398;11.736;2022-10-16T12:51:48;35.10;81.50
12268;DHT22;6196;48.398;11.736;2022-10-16T12:54:29;34.50;84.90
12268;DHT22;6196;48.398;11.736;2022-10-16T12:57:26;34.10;86.80
12268;DHT22;6196;48.398;11.736;2022-10-16T13:23:13;35.80;72.50
12268;DHT22;6196;48.398;11.736;2022-10-16T13:28:29;37.30;72.40
12268;DHT22;6196;48.398;11.736;2022-10-16T13:30:59;37.40;70.50
12268;DHT22;6196;48.398;11.736;2022-10-16T13:33:37;36.60;69.70
12268;DHT22;6196;48.398;11.736;2022-10-16T13:36:06;36.90;70.10
12268;DHT22;6196;48.398;11.736;2022-10-16T13:38:35;37.20;70.30
12268;DHT22;6196;48.398;11.736;2022-10-16T13:41:14;37.90;67.50
12268;DHT22;6196;48.398;11.736;2022-10-16T13:43:47;38.40;67.40
12268;DHT22;6196;48.398;11.736;2022-10-16T13:46:18;38.80;66.10
12268;DHT22;6196;48.398;11.736;2022-10-16T13:49:20;38.50;64.70
12268;DHT22;6196;48.398;11.736;2022-10-16T13:51:58;37.60;65.90
12268;DHT22;6196;48.398;11.736;2022-10-16T13:54:26;36.70;67.00
12268;DHT22;6196;48.398;11.736;2022-10-16T13:56:55;36.30;66.70
12268;DHT22;6196;48.398;11.736;2022-10-16T13:59:36;36.30;68.00
12268;DHT22;6196;48.398;11.736;2022-10-16T14:02:29;36.10;70.60
12268;DHT22;6196;48.398;11.736;2022-10-16T14:04:58;36.10;68.90
12268;DHT22;6196;48.398;11.736;2022-10-16T14:07:31;36.20;66.60
12268;DHT22;6196;48.398;11.736;2022-10-16T14:10:03;36.40;68.10
12268;DHT22;6196;48.398;11.736;2022-10-16T14:12:32;37.10;64.00
12268;DHT22;6196;48.398;11.736;2022-10-16T14:15:01;36.90;65.90
12268;DHT22;6196;48.398;11.736;2022-10-16T14:17:30;36.60;66.60
12268;DHT22;6196;48.398;11.736;2022-10-16T14:20:01;36.40;68.60
12268;DHT22;6196;48.398;11.736;2022-10-16T14:22:33;36.00;69.40
12268;DHT22;6196;48.398;11.736;2022-10-16T14:25:27;35.60;69.90
12268;DHT22;6196;48.398;11.736;2022-10-16T14:27:58;35.20;71.80
12268;DHT22;6196;48.398;11.736;2022-10-16T14:30:57;35.30;70.80
12268;DHT22;6196;48.398;11.736;2022-10-16T14:33:31;35.60;71.20
12268;DHT22;6196;48.398;11.736;2022-10-16T14:36:06;35.40;71.30
12268;DHT22;6196;48.398;11.736;2022-10-16T14:38:40;35.00;72.40
12268;DHT22;6196;48.398;11.736;2022-10-16T14:41:09;34.60;73.70
12268;DHT22;6196;48.398;11.736;2022-10-16T14:43:38;34.00;76.50
12268;DHT22;6196;48.398;11.736;2022-10-16T14:46:13;32.70;78.30
12268;DHT22;6196;48.398;11.736;2022-10-16T14:48:47;31.40;82.00
12268;DHT22;6196;48.398;11.736;2022-10-16T14:51:18;30.20;85.70
12268;DHT22;6196;48.398;11.736;2022-10-16T14:53:46;29.40;88.20
12268;DHT22;6196;48.398;11.736;2022-10-16T14:56:21;29.00;88.60
12268;DHT22;6196;48.398;11.736;2022-10-16T14:58:53;29.00;88.80
12268;DHT22;6196;48.398;11.736;2022-10-16T15:01:20;28.70;90.10
12268;DHT22;6196;48.398;11.736;2022-10-16T15:03:47;28.50;90.20
12268;DHT22;6196;48.398;11.736;2022-10-16T15:06:15;28.10;90.60
12268;DHT22;6196;48.398;11.736;2022-10-16T15:08:43;27.50;91.00
12268;DHT22;6196;48.398;11.736;2022-10-16T15:11:17;27.00;91.80
12268;DHT22;6196;48.398;11.736;2022-10-16T15:13:45;26.40;92.70
12268;DHT22;6196;48.398;11.736;2022-10-16T15:16:15;26.00;93.50
12268;DHT22;6196;48.398;11.736;2022-10-16T15:18:43;25.50;94.10
12268;DHT22;6196;48.398;11.736;2022-10-16T15:21:22;25.10;94.80
12268;DHT22;6196;48.398;11.736;2022-10-16T15:23:53;24.80;96.00
12268;DHT22;6196;48.398;11.736;2022-10-16T15:26:20;24.40;96.70
12268;DHT22;6196;48.398;11.736;2022-10-16T15:28:46;24.00;98.80
12268;DHT22;6196;48.398;11.736;2022-10-16T15:31:13;23.50;99.90
12268;DHT22;6196;48.398;11.736;2022-10-16T15:33:40;23.20;99.90
12268;DHT22;6196;48.398;11.736;2022-10-16T15:36:07;22.90;99.90
12268;DHT22;6196;48.398;11.736;2022-10-16T15:38:34;22.90;99.90
12268;DHT22;6196;48.398;11.736;2022-10-16T15:41:01;22.90;99.90
12268;DHT22;6196;48.398;11.736;2022-10-16T15:43:28;22.60;99.90
12268;DHT22;6196;48.398;11.736;2022-10-16T15:46:08;22.60;99.90
12268;DHT22;6196;48.398;11.736;2022-10-16T15:48:38;22.60;99.90
12268;DHT22;6196;48.398;11.736;2022-10-16T15:51:06;22.50;99.90
12268;DHT22;6196;48.398;11.736;2022-10-16T15:53:35;22.30;99.90
12268;DHT22;6196;48.398;11.736;2022-10-16T15:56:03;22.20;99.90
12268;DHT22;6196;48.398;11.736;2022-10-16T15:58:30;21.90;99.90
12268;DHT22;6196;48.398;11.736;2022-10-16T16:00:59;21.60;99.90
12268;DHT22;6196;48.398;11.736;2022-10-16T16:03:28;21.30;99.90
12268;DHT22;6196;48.398;11.736;2022-10-16T16:05:56;20.90;99.90
12268;DHT22;6196;48.398;11.736;2022-10-16T16:08:24;20.60;99.90
12268;DHT22;6196;48.398;11.736;2022-10-16T16:10:59;20.50;99.90
12268;DHT22;6196;48.398;11.736;2022-10-16T16:13:30;20.40;99.90
12268;DHT22;6196;48.398;11.736;2022-10-16T16:15:57;20.30;99.90
12268;DHT22;6196;48.398;11.736;2022-10-16T16:18:24;20.20;99.90
12268;DHT22;6196;48.398;11.736;2022-10-16T16:20:52;20.00;99.90
12268;DHT22;6196;48.398;11.736;2022-10-16T16:23:19;19.80;99.90
12268;DHT22;6196;48.398;11.736;2022-10-16T16:26:03;19.60;99.90
12268;DHT22;6196;48.398;11.736;2022-10-16T16:28:30;19.40;99.90
12268;DHT22;6196;48.398;11.736;2022-10-16T16:30:58;19.30;99.90
12268;DHT22;6196;48.398;11.736;2022-10-16T16:33:25;19.10;99.90
12268;DHT22;6196;48.398;11.736;2022-10-16T16:35:56;19.00;99.90
12268;DHT22;6196;48.398;11.736;2022-10-16T16:38:27;18.80;99.90
12268;DHT22;6196;48.398;11.736;2022-10-16T16:40:54;18.70;99.90
12268;DHT22;6196;48.398;11.736;2022-10-16T16:43:26;18.60;99.90
12268;DHT22;6196;48.398;11.736;2022-10-16T16:45:54;18.70;99.90
12268;DHT22;6196;48.398;11.736;2022-10-16T16:48:21;18.60;99.90
12268;DHT22;6196;48.398;11.736;2022-10-16T16:50:48;18.50;99.90
12268;DHT22;6196;48.398;11.736;2022-10-16T16:53:15;18.50;99.90
12268;DHT22;6196;48.398;11.736;2022-10-16T16:55:42;18.40;99.90
12268;DHT22;6196;48.398;11.736;2022-10-16T16:58:09;18.40;99.90
12268;DHT22;6196;48.398;11.736;2022-10-16T17:00:35;18.30;99.90
12268;DHT22;6196;48.398;11.736;2022-10-16T17:03:03;18.30;99.90
12268;DHT22;6196;48.398;11.736;2022-10-16T17:05:29;18.20;99.90
12268;DHT22;6196;48.398;11.736;2022-10-16T17:07:56;18.10;99.90
12268;DHT22;6196;48.398;11.736;2022-10-16T17:10:23;18.00;99.90
12268;DHT22;6196;48.398;11.736;2022-10-16T17:12:50;17.90;99.90
12268;DHT22;6196;48.398;11.736;2022-10-16T17:15:17;17.90;99.90
12268;DHT22;6196;48.398;11.736;2022-10-16T17:17:44;17.90;99.90
12268;DHT22;6196;48.398;11.736;2022-10-16T17:20:11;17.80;99.90
12268;DHT22;6196;48.398;11.736;2022-10-16T17:22:38;17.80;99.90
12268;DHT22;6196;48.398;11.736;2022-10-16T17:25:05;17.70;99.90
12268;DHT22;6196;48.398;11.736;2022-10-16T17:27:34;17.60;99.90
12268;DHT22;6196;48.398;11.736;2022-10-16T17:30:03;17.60;99.90
12268;DHT22;6196;48.398;11.736;2022-10-16T17:32:30;17.50;99.90
12268;DHT22;6196;48.398;11.736;2022-10-16T17:34:57;17.50;99.90
12268;DHT22;6196;48.398;11.736;2022-10-16T17:37:24;17.50;99.90
12268;DHT22;6196;48.398;11.736;2022-10-16T17:39:51;17.40;99.90
12268;DHT22;6196;48.398;11.736;2022-10-16T17:42:18;17.50;99.90
12268;DHT22;6196;48.398;11.736;2022-10-16T17:44:45;17.50;99.90
12268;DHT22;6196;48.398;11.736;2022-10-16T17:47:12;17.50;99.90
12268;DHT22;6196;48.398;11.736;2022-10-16T17:49:39;17.50;99.90
12268;DHT22;6196;48.398;11.736;2022-10-16T17:52:06;17.50;99.90
12268;DHT22;6196;48.398;11.736;2022-10-16T17:54:33;17.50;99.90
12268;DHT22;6196;48.398;11.736;2022-10-16T17:57:00;17.50;99.90
12268;DHT22;6196;48.398;11.736;2022-10-16T17:59:27;17.50;99.90
12268;DHT22;6196;48.398;11.736;2022-10-16T18:01:54;17.50;99.90